Time;durP1;ratioP1;P1;durP2;ratioP2;P2;SDS_P1;SDS_P2;PMS_P1;PMS_P2;Temp;Humidity;BMP_temperature;BMP_pressure;BME280_temperature;BME280_humidity;BME280_pressure;Samples;Min_cycle;Max_cycle;Signal;HPM_P1;HPM_P2
2023/05/28 00:01:25;;;;;;;5.03;4.47;;;;;;;17.15;54.27;95715.34;4988493;28;20199;-86
2023/05/28 00:03:52;;;;;;;7.45;4.75;;;;;;;17.15;53.73;95715.34;4992714;28;20297;-86
2023/05/28 00:06:18;;;;;;;8.90;4.97;;;;;;;17.08;53.71;95709.44;4993006;28;20214;-87
2023/05/28 00:08:45;;;;;;;6.75;4.70;;;;;;;17.12;53.85;95717.59;4993064;28;20734;-86
2023/05/28 00:11:14;;;;;;;5.35;4.20;;;;;;;17.16;53.12;95703.94;4993176;28;20195;-87
2023/05/28 00:13:40;;;;;;;5.95;4.05;;;;;;;17.27;52.51;95700.66;4994461;28;20596;-86
2023/05/28 00:16:08;;;;;;;6.05;4.28;;;;;;;17.18;52.15;95709.72;4994252;28;20199;-86
2023/05/28 00:18:34;;;;;;;8.10;4.47;;;;;;;17.26;51.88;95695.66;4993618;28;20228;-86
2023/05/28 00:21:01;;;;;;;7.28;4.10;;;;;;;17.23;51.18;95698.69;4992940;28;20222;-86
2023/05/28 00:23:28;;;;;;;6.50;4.25;;;;;;;17.04;51.70;95705.66;4993211;28;20739;-86
2023/05/28 00:25:54;;;;;;;5.53;4.30;;;;;;;16.99;52.05;95702.09;4993432;28;20230;-86
2023/05/28 00:28:20;;;;;;;9.02;4.30;;;;;;;16.91;52.31;95700.56;4992024;28;20254;-85
2023/05/28 00:30:47;;;;;;;7.15;4.13;;;;;;;16.96;51.84;95695.50;4996067;28;20239;-86
2023/05/28 00:33:15;;;;;;;8.85;4.40;;;;;;;16.93;52.00;95696.72;4991627;28;20216;-86
2023/05/28 00:35:41;;;;;;;7.97;3.90;;;;;;;17.02;51.23;95699.88;4991417;28;20207;-87
2023/05/28 00:38:07;;;;;;;7.68;4.40;;;;;;;17.05;51.52;95690.84;4991317;28;20228;-86
2023/05/28 00:40:34;;;;;;;11.25;5.10;;;;;;;17.15;51.04;95694.53;4991499;28;20203;-86
2023/05/28 00:43:00;;;;;;;5.50;4.03;;;;;;;17.10;50.83;95694.41;4991368;28;20206;-86
2023/05/28 00:45:27;;;;;;;7.03;4.07;;;;;;;17.03;51.13;95693.66;4993019;28;20235;-86
2023/05/28 00:47:54;;;;;;;8.43;4.20;;;;;;;17.07;51.39;95692.22;4994757;28;20230;-86
2023/05/28 00:50:25;;;;;;;6.85;3.80;;;;;;;16.97;51.71;95693.69;4992768;28;20192;-86
2023/05/28 00:52:52;;;;;;;5.78;3.92;;;;;;;16.95;51.06;95686.09;4994899;28;20237;-85
2023/05/28 00:55:19;;;;;;;6.70;3.90;;;;;;;16.82;51.52;95692.22;4994415;28;20199;-85
2023/05/28 00:57:47;;;;;;;7.05;4.00;;;;;;;16.95;51.46;95690.50;4995921;28;20302;-86
2023/05/28 01:00:14;;;;;;;5.05;3.80;;;;;;;17.02;51.11;95686.06;4998489;28;20575;-86
2023/05/28 01:02:41;;;;;;;8.52;3.97;;;;;;;17.03;51.06;95691.06;5002462;28;20207;-86
2023/05/28 01:05:09;;;;;;;5.57;3.80;;;;;;;17.06;51.30;95689.84;4998715;28;20238;-87
2023/05/28 01:07:37;;;;;;;4.75;3.60;;;;;;;17.00;51.19;95696.69;4997159;28;20407;-86
2023/05/28 01:10:04;;;;;;;6.93;4.03;;;;;;;16.95;51.38;95693.91;4992991;28;20425;-86
2023/05/28 01:12:32;;;;;;;7.90;4.00;;;;;;;16.89;51.51;95690.38;4974579;28;20222;-86
2023/05/28 01:14:59;;;;;;;9.20;4.03;;;;;;;16.77;51.97;95680.84;4974814;28;20196;-85
2023/05/28 01:17:26;;;;;;;5.40;4.00;;;;;;;16.69;51.84;95683.75;4974493;28;20633;-87
2023/05/28 01:19:53;;;;;;;6.63;4.13;;;;;;;16.66;52.30;95682.34;4989988;28;20229;-86
2023/05/28 01:22:27;;;;;;;6.82;4.32;;;;;;;16.43;52.91;95682.09;4994008;28;20621;-86
2023/05/28 01:24:55;;;;;;;6.78;4.78;;;;;;;16.32;52.56;95680.19;4994154;28;20330;-85
2023/05/28 01:27:22;;;;;;;7.45;3.92;;;;;;;16.37;52.51;95680.31;4994067;28;20223;-86
2023/05/28 01:29:48;;;;;;;8.80;4.50;;;;;;;16.43;51.99;95689.88;4990094;28;20669;-87
2023/05/28 01:32:15;;;;;;;8.10;4.13;;;;;;;16.48;52.29;95679.66;4974926;28;20196;-86
2023/05/28 01:34:41;;;;;;;6.93;3.97;;;;;;;16.52;52.12;95678.25;4974751;28;20200;-87
2023/05/28 01:37:10;;;;;;;5.90;3.95;;;;;;;16.43;52.60;95676.88;4975636;28;20923;-86
2023/05/28 01:39:42;;;;;;;5.88;3.95;;;;;;;16.50;52.79;95680.25;4985432;28;20574;-86
2023/05/28 01:42:10;;;;;;;5.82;4.35;;;;;;;16.42;52.77;95667.50;4973822;28;20208;-85
2023/05/28 01:44:37;;;;;;;5.15;4.13;;;;;;;16.56;52.71;95669.00;4974076;28;20224;-86
2023/05/28 01:47:05;;;;;;;7.53;4.35;;;;;;;16.65;51.79;95670.38;4974424;28;20227;-86
2023/05/28 01:49:32;;;;;;;11.45;4.00;;;;;;;16.60;51.67;95670.16;4974038;28;20692;-85
2023/05/28 01:51:59;;;;;;;5.05;4.05;;;;;;;16.63;51.36;95666.34;4975503;28;20611;-85
2023/05/28 01:54:25;;;;;;;6.82;4.30;;;;;;;16.58;52.02;95669.56;4974019;28;20200;-86
2023/05/28 01:56:52;;;;;;;8.15;4.03;;;;;;;16.42;52.49;95663.09;4973963;28;20214;-85
2023/05/28 01:59:20;;;;;;;6.22;3.95;;;;;;;16.46;52.53;95660.88;4977302;28;20199;-86
2023/05/28 02:01:46;;;;;;;7.68;3.92;;;;;;;16.41;52.68;95664.09;4991734;28;20922;-86
2023/05/28 02:04:13;;;;;;;6.53;4.07;;;;;;;16.29;52.17;95665.78;4993497;28;20200;-86
2023/05/28 02:06:41;;;;;;;7.22;4.60;;;;;;;16.20;52.20;95672.22;4993501;28;20204;-87
2023/05/28 02:09:07;;;;;;;6.68;4.13;;;;;;;16.17;52.28;95670.84;4992683;28;20214;-86
2023/05/28 02:11:33;;;;;;;6.22;4.75;;;;;;;16.18;52.73;95661.25;4992729;28;20206;-86
2023/05/28 02:14:00;;;;;;;5.75;4.07;;;;;;;16.11;53.39;95663.09;4992879;28;20203;-86
2023/05/28 02:16:28;;;;;;;6.95;4.07;;;;;;;16.15;53.11;95665.09;4992322;28;20195;-86
2023/05/28 02:18:54;;;;;;;5.70;4.00;;;;;;;16.16;53.45;95668.47;4992520;28;20223;-86
2023/05/28 02:21:21;;;;;;;8.35;4.70;;;;;;;16.22;53.48;95665.03;4992580;28;20704;-86
2023/05/28 02:23:49;;;;;;;4.95;3.63;;;;;;;16.20;53.86;95657.44;4993119;28;20216;-85
2023/05/28 02:26:16;;;;;;;5.68;3.85;;;;;;;16.24;54.15;95663.81;4992731;28;20223;-86
2023/05/28 02:28:43;;;;;;;5.38;4.10;;;;;;;16.19;54.70;95657.66;4992148;28;20350;-86
2023/05/28 02:31:10;;;;;;;7.15;4.05;;;;;;;16.28;53.85;95663.41;4992653;28;20206;-86
2023/05/28 02:33:38;;;;;;;6.05;4.05;;;;;;;16.19;54.74;95663.63;4993130;28;20199;-85
2023/05/28 02:36:06;;;;;;;6.00;3.67;;;;;;;16.21;54.36;95658.25;4992498;28;20230;-85
2023/05/28 02:38:32;;;;;;;5.35;4.28;;;;;;;16.21;54.05;95661.63;4987378;28;20307;-87
2023/05/28 02:40:58;;;;;;;5.80;3.78;;;;;;;16.19;54.46;95660.25;4973410;28;20208;-85
2023/05/28 02:43:25;;;;;;;6.53;3.95;;;;;;;16.17;54.98;95663.03;4973308;28;20208;-85
2023/05/28 02:45:51;;;;;;;8.38;4.57;;;;;;;16.08;55.03;95666.91;4974213;28;20594;-85
2023/05/28 02:48:18;;;;;;;7.93;4.43;;;;;;;15.98;54.73;95670.94;4973501;28;20235;-85
2023/05/28 02:50:46;;;;;;;6.00;3.90;;;;;;;15.91;55.39;95673.59;4973527;28;20204;-85
2023/05/28 02:53:12;;;;;;;5.43;3.75;;;;;;;15.78;55.18;95677.03;4973508;28;20586;-86
2023/05/28 02:55:38;;;;;;;7.10;4.20;;;;;;;15.86;54.88;95671.63;4973997;28;20212;-86
2023/05/28 02:58:06;;;;;;;5.78;4.20;;;;;;;15.86;55.51;95674.22;4973773;28;20239;-85
2023/05/28 03:00:33;;;;;;;7.80;4.05;;;;;;;15.91;55.03;95683.97;4982074;28;20669;-86
2023/05/28 03:02:59;;;;;;;10.85;4.60;;;;;;;15.88;55.09;95682.59;4992553;28;20215;-85
2023/05/28 03:05:25;;;;;;;6.45;4.30;;;;;;;15.77;55.51;95679.84;4992857;28;20219;-86
2023/05/28 03:07:53;;;;;;;6.28;4.22;;;;;;;15.65;55.41;95687.47;4993281;28;20238;-86
2023/05/28 03:10:20;;;;;;;7.20;4.43;;;;;;;15.43;56.34;95681.72;4992215;28;20198;-86
2023/05/28 03:12:46;;;;;;;7.03;4.10;;;;;;;15.36;56.55;95683.56;4992412;28;20203;-86
2023/05/28 03:15:14;;;;;;;7.32;4.28;;;;;;;15.35;56.08;95686.34;4992633;28;20200;-85
2023/05/28 03:17:40;;;;;;;6.30;4.85;;;;;;;15.42;56.01;95687.91;4992758;28;20245;-86
2023/05/28 03:20:09;;;;;;;7.05;4.20;;;;;;;15.51;55.84;95688.50;4993366;28;20226;-86
2023/05/28 03:22:36;;;;;;;6.88;4.32;;;;;;;15.67;55.11;95690.66;4992916;28;20200;-85
2023/05/28 03:25:05;;;;;;;6.00;4.38;;;;;;;15.72;55.11;95692.66;4991587;28;20223;-85
2023/05/28 03:27:32;;;;;;;9.80;4.43;;;;;;;15.58;56.01;95697.09;4992586;28;20223;-85
2023/05/28 03:29:58;;;;;;;7.82;4.43;;;;;;;15.44;56.20;95688.50;4991938;28;20195;-86
2023/05/28 03:32:25;;;;;;;7.55;4.78;;;;;;;15.21;56.78;95691.53;4993268;28;20774;-86
2023/05/28 03:34:51;;;;;;;8.70;4.50;;;;;;;15.13;56.37;95690.97;4995475;28;20210;-86
2023/05/28 03:37:18;;;;;;;6.50;4.63;;;;;;;15.01;56.69;95690.78;4995521;28;20219;-86
2023/05/28 03:39:45;;;;;;;8.73;4.45;;;;;;;14.99;56.83;95695.38;4985386;28;20187;-86
2023/05/28 03:42:12;;;;;;;6.57;4.25;;;;;;;15.08;56.54;95685.59;4996250;28;20215;-86
2023/05/28 03:44:39;;;;;;;5.55;4.15;;;;;;;15.14;56.71;95679.59;4996470;28;20203;-86
2023/05/28 03:47:06;;;;;;;7.82;4.32;;;;;;;15.13;56.48;95688.38;4996635;28;20601;-87
2023/05/28 03:49:32;;;;;;;9.23;4.97;;;;;;;15.19;56.84;95690.97;4994626;28;20210;-86
2023/05/28 03:52:01;;;;;;;6.75;4.30;;;;;;;15.31;55.85;95692.94;4976630;28;20196;-86
2023/05/28 03:54:27;;;;;;;5.53;3.95;;;;;;;15.37;56.19;95684.34;4977542;28;20208;-85
2023/05/28 03:56:53;;;;;;;9.07;5.38;;;;;;;15.30;56.13;95689.53;4977810;28;20214;-87
2023/05/28 03:59:21;;;;;;;8.38;4.63;;;;;;;15.29;56.01;95687.94;4976651;28;20207;-85
2023/05/28 04:01:48;;;;;;;8.45;4.88;;;;;;;15.30;55.69;95686.94;4993761;28;20286;-86
2023/05/28 04:04:15;;;;;;;6.97;4.00;;;;;;;15.40;55.71;95686.50;4997732;28;20200;-87
2023/05/28 04:06:41;;;;;;;7.65;4.72;;;;;;;15.32;55.17;95686.75;4996786;28;20230;-86
2023/05/28 04:09:08;;;;;;;7.65;4.60;;;;;;;15.34;55.21;95685.56;4996448;28;20199;-88
2023/05/28 04:11:37;;;;;;;8.05;4.80;;;;;;;15.34;55.26;95685.56;4979366;28;20311;-87
2023/05/28 04:14:03;;;;;;;6.95;4.03;;;;;;;15.51;55.15;95691.09;4995912;28;20727;-85
2023/05/28 04:16:33;;;;;;;9.15;4.72;;;;;;;15.47;54.48;95682.13;4996268;28;20227;-86
2023/05/28 04:19:01;;;;;;;7.53;4.80;;;;;;;15.51;55.23;95685.91;4996502;28;20227;-86
2023/05/28 04:21:30;;;;;;;8.60;4.90;;;;;;;15.55;55.35;95684.50;4996191;28;20262;-86
2023/05/28 04:23:56;;;;;;;7.03;4.50;;;;;;;15.56;54.92;95690.53;4996586;28;20290;-86
2023/05/28 04:26:23;;;;;;;9.63;4.18;;;;;;;15.54;55.06;95699.28;4995553;28;20220;-87
2023/05/28 04:28:50;;;;;;;5.70;4.35;;;;;;;15.79;55.15;95683.03;4996216;28;20275;-86
2023/05/28 04:31:18;;;;;;;7.15;4.28;;;;;;;15.82;54.32;95693.78;4995800;28;20196;-86
2023/05/28 04:33:53;;;;;;;8.13;4.60;;;;;;;15.80;54.72;95698.41;5000236;28;20203;-86
2023/05/28 04:36:20;;;;;;;12.55;5.38;;;;;;;15.93;54.39;95694.97;5001081;28;20391;-86
2023/05/28 04:38:47;;;;;;;9.05;4.53;;;;;;;15.95;54.55;95699.97;4995821;28;20223;-85
2023/05/28 04:41:14;;;;;;;7.47;4.28;;;;;;;15.96;53.66;95698.94;4999155;28;20202;-86
2023/05/28 04:43:41;;;;;;;7.93;4.50;;;;;;;15.93;53.54;95702.75;4999523;28;20209;-87
2023/05/28 04:46:13;;;;;;;9.52;4.40;;;;;;;15.80;54.08;95710.59;4996871;28;20700;-87
2023/05/28 04:48:40;;;;;;;6.43;3.97;;;;;;;15.98;53.75;95705.50;4998364;28;20219;-86
2023/05/28 04:51:10;;;;;;;8.13;4.70;;;;;;;16.02;54.12;95714.50;4999201;28;20291;-88
2023/05/28 04:53:37;;;;;;;7.30;4.20;;;;;;;16.10;52.74;95711.66;4999813;28;20203;-85
2023/05/28 04:56:05;;;;;;;7.53;4.28;;;;;;;16.04;52.79;95711.69;4998847;28;20227;-86
2023/05/28 04:58:31;;;;;;;6.20;4.28;;;;;;;16.00;53.09;95713.91;4999667;28;20287;-87
2023/05/28 05:00:58;;;;;;;7.00;4.03;;;;;;;16.04;53.46;95706.50;4998924;28;20199;-86
2023/05/28 05:03:25;;;;;;;10.27;4.25;;;;;;;16.21;53.18;95703.19;4998430;28;20242;-85
2023/05/28 05:05:53;;;;;;;8.20;4.53;;;;;;;16.18;52.81;95713.22;4999554;28;20216;-86
2023/05/28 05:08:23;;;;;;;8.68;4.68;;;;;;;16.17;53.48;95712.41;4998847;28;20760;-87
2023/05/28 05:10:52;;;;;;;7.05;4.20;;;;;;;16.24;53.23;95707.97;4999186;28;20200;-86
2023/05/28 05:13:19;;;;;;;7.60;4.55;;;;;;;16.31;53.09;95709.75;5000709;28;20211;-86
2023/05/28 05:15:48;;;;;;;10.32;4.70;;;;;;;16.28;52.72;95707.56;4999211;28;20218;-85
2023/05/28 05:18:15;;;;;;;6.13;3.90;;;;;;;16.34;53.27;95710.16;4999655;28;20605;-85
2023/05/28 05:20:41;;;;;;;8.15;4.28;;;;;;;16.47;53.31;95709.25;4997934;28;20704;-87
2023/05/28 05:23:08;;;;;;;6.35;4.20;;;;;;;16.49;52.75;95713.25;4998101;28;20759;-85
2023/05/28 05:25:35;;;;;;;6.57;3.65;;;;;;;16.56;51.89;95713.97;4997814;28;20624;-86
2023/05/28 05:28:02;;;;;;;7.20;4.13;;;;;;;16.53;51.75;95705.81;4997169;28;20239;-85
2023/05/28 05:30:29;;;;;;;7.88;4.28;;;;;;;16.63;51.51;95702.75;4995821;28;20695;-86
2023/05/28 05:32:56;;;;;;;4.80;3.90;;;;;;;16.64;52.34;95707.75;4997010;28;20195;-87
2023/05/28 05:35:23;;;;;;;7.28;4.55;;;;;;;16.66;51.55;95703.16;4994521;28;20320;-86
2023/05/28 05:37:49;;;;;;;6.47;4.15;;;;;;;16.61;52.25;95705.56;4996449;28;20289;-84
2023/05/28 05:40:16;;;;;;;6.32;4.38;;;;;;;16.68;52.25;95708.94;4993598;28;20200;-86
2023/05/28 05:42:44;;;;;;;6.32;4.03;;;;;;;16.72;51.80;95704.13;4991711;28;20819;-86
2023/05/28 05:45:10;;;;;;;7.93;4.47;;;;;;;16.70;51.37;95706.94;4995394;28;20198;-86
2023/05/28 05:47:37;;;;;;;7.05;4.00;;;;;;;16.79;51.96;95700.44;4995832;28;20230;-86
2023/05/28 05:50:04;;;;;;;6.85;3.97;;;;;;;16.82;51.29;95696.63;4995255;28;20242;-86
2023/05/28 05:52:31;;;;;;;6.72;4.25;;;;;;;16.73;51.48;95709.13;4977128;28;20665;-87
2023/05/28 05:54:58;;;;;;;8.85;4.15;;;;;;;16.75;51.66;95711.47;4979690;28;20207;-86
2023/05/28 05:57:26;;;;;;;8.55;4.30;;;;;;;16.63;51.38;95705.34;4985487;28;20216;-86
2023/05/28 05:59:54;;;;;;;6.70;4.50;;;;;;;16.59;51.43;95704.97;4993133;28;20298;-85
2023/05/28 06:02:20;;;;;;;6.18;3.92;;;;;;;16.64;51.85;95699.97;4991873;28;20204;-86
2023/05/28 06:04:47;;;;;;;7.65;4.18;;;;;;;16.66;51.49;95697.16;4988440;28;20208;-86
2023/05/28 06:07:13;;;;;;;9.38;4.53;;;;;;;16.70;51.35;95700.94;4994916;28;20234;-86
2023/05/28 06:09:40;;;;;;;6.70;4.38;;;;;;;16.82;51.00;95700.03;4984482;28;20631;-85
2023/05/28 06:12:07;;;;;;;6.47;4.00;;;;;;;16.85;50.39;95696.22;4994437;28;20207;-86
2023/05/28 06:14:33;;;;;;;7.55;3.85;;;;;;;17.00;51.10;95698.47;4993728;28;20207;-86
2023/05/28 06:17:01;;;;;;;7.60;4.28;;;;;;;17.15;50.67;95706.75;4992631;28;20233;-86
2023/05/28 06:19:29;;;;;;;6.43;3.72;;;;;;;17.11;49.87;95698.59;4985274;28;20676;-85
2023/05/28 06:21:55;;;;;;;7.45;4.90;;;;;;;17.14;50.14;95700.75;4993694;28;20207;-86
2023/05/28 06:24:21;;;;;;;6.97;4.10;;;;;;;17.17;49.75;95707.34;4994129;28;20206;-86
2023/05/28 06:26:48;;;;;;;9.40;4.45;;;;;;;17.22;50.45;95713.50;4993306;28;20243;-85
2023/05/28 06:29:15;;;;;;;7.50;4.47;;;;;;;17.21;49.28;95703.28;4993441;28;20207;-86
2023/05/28 06:31:41;;;;;;;12.70;4.60;;;;;;;17.22;49.89;95707.50;4993070;28;20203;-85
2023/05/28 06:34:09;;;;;;;8.40;4.22;;;;;;;17.29;50.36;95703.03;4993535;28;20510;-86
2023/05/28 06:36:36;;;;;;;6.10;3.85;;;;;;;17.38;50.09;95700.94;4993012;28;20203;-86
2023/05/28 06:39:04;;;;;;;8.32;4.32;;;;;;;17.46;49.32;95706.66;4992834;28;20277;-85
2023/05/28 06:41:30;;;;;;;7.63;4.07;;;;;;;17.46;49.50;95714.47;4992034;28;20212;-86
2023/05/28 06:43:57;;;;;;;6.90;4.13;;;;;;;17.55;49.80;95709.75;4992427;28;20203;-85
2023/05/28 06:46:23;;;;;;;8.40;4.00;;;;;;;17.59;49.18;95713.53;4990599;28;20223;-88
2023/05/28 06:48:50;;;;;;;7.25;3.92;;;;;;;17.76;51.37;95716.38;4989447;28;20215;-86
2023/05/28 06:51:18;;;;;;;8.35;3.90;;;;;;;17.89;49.89;95713.63;4989585;28;20771;-87
2023/05/28 06:53:44;;;;;;;7.20;4.32;;;;;;;17.93;49.32;95717.38;4987739;28;20207;-88
2023/05/28 06:56:11;;;;;;;9.15;4.38;;;;;;;18.09;51.09;95716.75;4987828;28;20211;-87
2023/05/28 06:58:44;;;;;;;11.70;5.15;;;;;;;18.42;52.07;95713.75;4987636;28;20400;-88
2023/05/28 07:01:10;;;;;;;9.85;4.53;;;;;;;18.82;50.88;95706.16;4984158;28;20249;-88
2023/05/28 07:03:37;;;;;;;10.48;4.32;;;;;;;19.02;50.36;95716.28;4992649;28;20326;-89
2023/05/28 07:06:03;;;;;;;8.45;4.40;;;;;;;19.16;49.53;95715.03;4987874;28;20216;-89
2023/05/28 07:08:31;;;;;;;6.22;4.15;;;;;;;19.03;47.68;95709.25;4988046;28;20219;-88
2023/05/28 07:11:02;;;;;;;6.30;4.00;;;;;;;19.11;49.27;95701.06;4988874;28;20628;-89
2023/05/28 07:13:35;;;;;;;7.93;3.83;;;;;;;19.08;46.97;95707.53;4987304;28;20252;-90
2023/05/28 07:16:01;;;;;;;8.98;4.30;;;;;;;19.15;47.10;95708.22;4985759;28;20294;-88
2023/05/28 07:18:31;;;;;;;8.70;4.55;;;;;;;19.08;47.17;95704.13;4986652;28;20253;-88
2023/05/28 07:21:13;;;;;;;5.88;3.90;;;;;;;19.22;47.34;95714.13;4983899;28;20299;-89
2023/05/28 07:23:41;;;;;;;7.50;4.25;;;;;;;19.19;47.42;95711.97;4990293;28;20210;-89
2023/05/28 07:26:08;;;;;;;7.28;4.20;;;;;;;19.14;48.22;95704.03;4986493;28;20231;-89
2023/05/28 07:28:34;;;;;;;5.43;4.10;;;;;;;19.10;48.08;95705.50;4986208;28;20230;-88
2023/05/28 07:31:02;;;;;;;6.72;4.38;;;;;;;19.21;47.48;95698.69;4987335;28;20187;-88
2023/05/28 07:33:28;;;;;;;6.72;3.85;;;;;;;19.23;48.71;95702.69;4988123;28;20238;-88
2023/05/28 07:35:55;;;;;;;10.18;4.00;;;;;;;19.41;47.38;95704.38;4987148;28;20246;-88
2023/05/28 07:38:21;;;;;;;5.07;3.60;;;;;;;19.49;47.98;95698.78;4988294;28;20235;-88
2023/05/28 07:40:50;;;;;;;7.15;4.50;;;;;;;19.40;45.51;95704.59;4970358;28;20207;-89
2023/05/28 07:43:17;;;;;;;6.03;3.95;;;;;;;19.32;45.07;95693.47;4968804;28;20215;-89
2023/05/28 07:45:43;;;;;;;6.00;3.70;;;;;;;19.43;45.73;95696.31;4969327;28;20211;-89
2023/05/28 07:48:11;;;;;;;7.78;4.00;;;;;;;19.57;45.10;95692.44;4969410;28;20228;-89
2023/05/28 07:50:38;;;;;;;5.60;3.60;;;;;;;19.54;45.08;95704.16;4980555;28;20203;-88
2023/05/28 07:53:05;;;;;;;6.43;4.10;;;;;;;19.61;46.29;95701.44;4980270;28;20199;-88
2023/05/28 07:55:32;;;;;;;6.95;4.43;;;;;;;19.76;46.01;95693.09;4988726;28;20207;-88
2023/05/28 07:58:00;;;;;;;7.10;4.35;;;;;;;19.81;45.31;95695.81;4988327;28;20231;-88
2023/05/28 08:00:27;;;;;;;5.65;3.70;;;;;;;19.94;45.71;95690.31;4980017;28;20210;-88
2023/05/28 08:02:53;;;;;;;8.25;3.92;;;;;;;20.22;46.56;95695.53;4988207;28;20211;-86
2023/05/28 08:05:20;;;;;;;12.73;4.13;;;;;;;20.42;46.02;95691.72;4976046;28;20200;-86
2023/05/28 08:07:47;;;;;;;8.18;4.32;;;;;;;20.67;48.30;95685.13;4973199;28;20232;-86
2023/05/28 08:10:13;;;;;;;6.10;3.88;;;;;;;20.85;43.46;95685.91;4989085;28;20230;-87
2023/05/28 08:12:39;;;;;;;6.43;3.70;;;;;;;20.87;42.86;95689.88;4993583;28;20286;-86
2023/05/28 08:15:09;;;;;;;6.07;4.00;;;;;;;20.97;42.46;95682.16;4993311;28;20571;-86
2023/05/28 08:17:36;;;;;;;6.47;3.83;;;;;;;21.16;43.93;95684.56;4993655;28;20251;-86
2023/05/28 08:20:03;;;;;;;6.22;4.03;;;;;;;21.31;42.85;95692.66;4993581;28;20200;-86
2023/05/28 08:22:30;;;;;;;7.03;3.97;;;;;;;21.50;42.93;95685.31;4993216;28;20205;-88
2023/05/28 08:24:56;;;;;;;6.18;3.67;;;;;;;21.51;42.21;95694.75;4993761;28;20211;-87
2023/05/28 08:27:23;;;;;;;22.80;18.20;;;;;;;21.31;40.50;95682.97;4993165;28;20672;-87
2023/05/28 08:29:49;;;;;;;16.27;8.82;;;;;;;21.40;43.31;95688.59;4992648;28;20706;-86
2023/05/28 08:32:17;;;;;;;6.50;4.07;;;;;;;21.50;41.32;95680.88;4992861;28;20204;-87
2023/05/28 08:34:44;;;;;;;5.68;3.70;;;;;;;21.43;40.83;95690.72;4993077;28;20611;-88
2023/05/28 08:37:11;;;;;;;9.82;3.65;;;;;;;21.41;39.52;95682.31;4993284;28;20222;-87
2023/05/28 08:39:37;;;;;;;5.90;3.55;;;;;;;21.28;40.44;95678.22;4991742;28;20203;-87
2023/05/28 08:42:05;;;;;;;5.47;3.72;;;;;;;21.45;41.23;95680.00;4993232;28;20200;-88
2023/05/28 08:44:31;;;;;;;4.78;3.25;;;;;;;21.52;40.53;95678.00;4993101;28;20199;-88
2023/05/28 08:46:59;;;;;;;5.38;3.83;;;;;;;21.47;40.09;95680.56;4992322;28;20219;-87
2023/05/28 08:49:32;;;;;;;5.85;3.67;;;;;;;21.54;40.17;95675.94;4992847;28;20204;-86
2023/05/28 08:52:01;;;;;;;7.05;3.42;;;;;;;21.53;38.90;95676.97;4992605;28;20195;-87
2023/05/28 08:54:29;;;;;;;5.03;3.53;;;;;;;21.86;40.45;95673.44;4992769;28;20215;-87
2023/05/28 08:56:56;;;;;;;5.97;4.10;;;;;;;21.92;39.25;95672.47;4993214;28;20311;-87
2023/05/28 08:59:23;;;;;;;7.57;3.58;;;;;;;21.90;37.90;95677.97;4987680;28;20192;-87
2023/05/28 09:01:50;;;;;;;5.13;3.60;;;;;;;21.89;36.65;95668.50;4989935;28;20215;-86
2023/05/28 09:04:21;;;;;;;5.07;3.50;;;;;;;21.87;38.09;95664.53;4987482;28;20242;-87
2023/05/28 09:06:51;;;;;;;8.35;4.40;;;;;;;21.84;37.54;95668.44;4979291;28;20674;-87
2023/05/28 09:09:17;;;;;;;7.43;4.05;;;;;;;22.09;37.38;95665.34;4990827;28;20299;-88
2023/05/28 09:11:46;;;;;;;7.95;5.00;;;;;;;22.35;37.17;95661.13;4991919;28;20223;-87
2023/05/28 09:14:14;;;;;;;9.18;4.50;;;;;;;22.52;37.30;95658.38;4991941;28;20207;-87
2023/05/28 09:16:44;;;;;;;6.63;3.80;;;;;;;22.59;37.63;95664.22;4991616;28;20226;-87
2023/05/28 09:19:15;;;;;;;4.65;3.70;;;;;;;22.72;38.03;95656.72;4991064;28;20219;-87
2023/05/28 09:21:57;;;;;;;7.72;3.95;;;;;;;22.95;40.31;95654.81;4992153;28;20191;-88
2023/05/28 09:24:25;;;;;;;5.75;3.40;;;;;;;22.94;36.67;95653.25;4992307;28;20683;-87
2023/05/28 09:26:55;;;;;;;7.53;4.50;;;;;;;23.00;37.03;95660.91;4991744;28;20251;-88
2023/05/28 09:29:21;;;;;;;5.35;3.67;;;;;;;23.16;36.98;95659.16;4991611;28;20206;-86
2023/05/28 09:31:55;;;;;;;7.40;3.92;;;;;;;23.24;35.94;95648.19;4992180;28;20207;-86
2023/05/28 09:34:26;;;;;;;7.28;4.05;;;;;;;23.42;36.94;95653.03;4991917;28;20206;-87
2023/05/28 09:37:02;;;;;;;11.10;6.25;;;;;;;23.50;36.59;95649.09;4991121;28;20700;-87
2023/05/28 09:39:29;;;;;;;17.40;11.48;;;;;;;23.64;37.07;95646.84;4991379;28;20206;-86
2023/05/28 09:42:03;;;;;;;6.13;4.30;;;;;;;23.59;35.93;95649.44;4991384;28;20223;-87
2023/05/28 09:44:34;;;;;;;8.40;4.05;;;;;;;23.51;35.86;95650.69;4991264;28;20208;-87
2023/05/28 09:47:00;;;;;;;7.07;4.07;;;;;;;23.67;36.69;95648.94;4988671;28;20771;-87
2023/05/28 09:49:29;;;;;;;7.70;3.70;;;;;;;23.84;35.89;95651.38;4986618;28;20235;-87
2023/05/28 09:51:58;;;;;;;5.97;3.85;;;;;;;23.86;34.52;95649.28;4971978;28;20262;-83
2023/05/28 09:54:31;;;;;;;7.30;3.72;;;;;;;23.62;34.56;95649.72;4971770;28;20234;-90
2023/05/28 09:57:02;;;;;;;9.35;3.70;;;;;;;23.53;35.31;95645.19;4987378;28;20572;-89
2023/05/28 09:59:31;;;;;;;6.68;3.72;;;;;;;23.64;34.64;95645.00;4985585;28;20605;-90
2023/05/28 10:04:55;;;;;;;7.22;3.78;;;;;;;23.60;32.91;95641.31;4987983;28;20218;-91
2023/05/28 10:07:27;;;;;;;7.93;3.88;;;;;;;23.66;34.50;95648.19;4988136;28;20659;-93
2023/05/28 10:09:59;;;;;;;16.90;15.02;;;;;;;23.90;34.52;95658.22;4983633;28;20226;-91
2023/05/28 10:12:29;;;;;;;13.25;10.10;;;;;;;24.15;34.09;95642.53;4990230;28;20253;-92
2023/05/28 10:14:56;;;;;;;5.30;3.70;;;;;;;24.27;34.06;95642.28;4990142;28;20210;-92
2023/05/28 10:17:23;;;;;;;4.47;3.15;;;;;;;24.27;33.38;95644.94;4989547;28;20219;-90
2023/05/28 10:19:49;;;;;;;7.35;3.90;;;;;;;24.30;33.88;95652.31;4982771;28;20208;-91
2023/05/28 10:22:17;;;;;;;5.45;3.67;;;;;;;24.41;34.83;95638.13;4970383;28;20200;-90
2023/05/28 10:24:48;;;;;;;5.88;3.80;;;;;;;24.52;33.31;95641.53;4984976;28;20282;-90
2023/05/28 10:27:24;;;;;;;5.60;3.85;;;;;;;24.44;33.41;95638.38;4982354;28;20227;-90
2023/05/28 10:29:50;;;;;;;5.22;3.50;;;;;;;24.66;34.14;95643.38;4969463;28;20223;-91
2023/05/28 10:32:18;;;;;;;4.45;3.42;;;;;;;24.92;34.31;95638.13;4970382;28;20212;-90
2023/05/28 10:34:50;;;;;;;6.45;3.90;;;;;;;24.81;33.79;95636.56;4970252;28;20192;-91
2023/05/28 10:37:23;;;;;;;5.55;3.80;;;;;;;24.50;33.09;95633.91;4970177;28;20216;-91
2023/05/28 10:40:05;;;;;;;5.57;3.42;;;;;;;24.64;33.67;95627.06;4981980;28;20587;-92
2023/05/28 10:42:39;;;;;;;4.95;3.47;;;;;;;24.60;32.56;95635.75;4989355;28;20672;-92
2023/05/28 10:45:10;;;;;;;5.30;3.78;;;;;;;24.73;33.82;95629.97;4989380;28;20286;-90
2023/05/28 10:47:38;;;;;;;7.75;3.38;;;;;;;24.86;32.45;95621.50;4989449;28;20223;-90
2023/05/28 10:50:18;;;;;;;5.90;3.40;;;;;;;24.80;32.31;95617.31;4989149;28;20203;-91
2023/05/28 10:53:12;;;;;;;7.55;4.00;;;;;;;24.90;32.80;95627.06;4988937;28;20261;-90
2023/05/28 10:56:08;;;;;;;6.32;3.40;;;;;;;25.09;31.85;95620.19;4969996;28;20235;-91
2023/05/28 10:59:02;;;;;;;6.25;3.60;;;;;;;25.19;31.97;95622.03;4969873;28;20251;-91
2023/05/28 11:01:42;;;;;;;6.72;3.88;;;;;;;25.09;31.71;95623.63;4988870;28;20222;-90
2023/05/28 11:04:09;;;;;;;6.30;3.75;;;;;;;24.64;31.50;95615.72;4988997;28;20195;-91
2023/05/28 11:06:43;;;;;;;5.57;3.38;;;;;;;24.63;31.60;95617.56;4988827;28;20199;-90
2023/05/28 11:09:10;;;;;;;5.35;3.65;;;;;;;24.43;30.39;95617.59;4988131;28;20233;-91
2023/05/28 11:12:13;;;;;;;6.20;4.10;;;;;;;24.62;30.88;95609.97;4988593;28;20203;-91
2023/05/28 11:14:41;;;;;;;5.40;4.45;;;;;;;24.84;30.04;95614.94;4989154;28;20233;-92
2023/05/28 11:17:36;;;;;;;9.85;7.35;;;;;;;25.07;31.14;95609.91;4988531;28;20202;-91
2023/05/28 11:20:35;;;;;;;5.70;4.10;;;;;;;25.26;30.46;95617.25;4984121;28;20290;-91
2023/05/28 11:23:25;;;;;;;7.63;3.53;;;;;;;25.42;30.43;95614.31;4970284;28;20226;-91
2023/05/28 11:25:52;;;;;;;5.97;3.50;;;;;;;25.17;28.93;95603.84;4981872;28;20277;-90
2023/05/28 11:28:19;;;;;;;4.03;3.20;;;;;;;25.10;30.04;95617.28;4978632;28;20224;-91
2023/05/28 11:30:55;;;;;;;4.80;3.47;;;;;;;25.15;30.19;95613.88;4969356;28;20201;-90
2023/05/28 11:36:02;;;;;;;4.10;3.17;;;;;;;25.39;29.73;95609.59;4991723;28;20608;-89
2023/05/28 11:42:20;;;;;;;5.75;3.30;;;;;;;25.36;30.95;95604.06;4967213;28;20258;-86
2023/05/28 11:45:11;;;;;;;5.72;3.83;;;;;;;25.46;30.27;95604.00;4994201;28;20211;-86
2023/05/28 11:47:39;;;;;;;7.25;3.90;;;;;;;25.40;30.98;95597.97;4993172;28;20223;-85